Time;durP1;ratioP1;P1;durP2;ratioP2;P2;SDS_P1;SDS_P2;PMS_P1;PMS_P2;Temp;Humidity;BMP_temperature;BMP_pressure;BME280_temperature;BME280_humidity;BME280_pressure;Samples;Min_cycle;Max_cycle;Signal;HPM_P1;HPM_P2
2023/04/18 00:00:52;;;;;;;17.27;12.88;;;;;;;11.84;56.73;102495.72;5077850;28;20062;-66
2023/04/18 00:03:19;;;;;;;19.17;13.30;;;;;;;11.81;56.34;102493.31;5092028;28;20032;-66
2023/04/18 00:05:47;;;;;;;17.08;13.43;;;;;;;11.82;56.57;102483.91;5092699;28;20095;-66
2023/04/18 00:08:13;;;;;;;16.48;13.15;;;;;;;11.83;57.07;102493.09;5072535;28;20203;-67
2023/04/18 00:10:38;;;;;;;17.33;13.57;;;;;;;11.83;56.83;102484.75;5072322;28;20160;-66
2023/04/18 00:13:03;;;;;;;18.92;12.40;;;;;;;11.82;56.70;102492.25;5079083;28;22350;-65
2023/04/18 00:15:29;;;;;;;14.60;12.98;;;;;;;11.84;56.71;102487.34;5069093;28;20024;-66
2023/04/18 00:17:57;;;;;;;17.77;13.32;;;;;;;11.76;56.85;102496.78;5070171;28;20032;-66
2023/04/18 00:20:25;;;;;;;16.30;12.73;;;;;;;11.79;56.41;102485.22;5072413;28;20112;-66
2023/04/18 00:22:52;;;;;;;20.42;13.90;;;;;;;11.72;56.83;102484.38;5072136;28;20028;-66
2023/04/18 00:25:18;;;;;;;18.15;13.43;;;;;;;11.74;56.97;102487.78;5071243;28;20040;-66
2023/04/18 00:27:43;;;;;;;17.52;14.30;;;;;;;11.68;57.02;102493.41;5064147;28;20021;-66
2023/04/18 00:30:09;;;;;;;16.27;13.73;;;;;;;11.63;56.99;102485.72;5063999;28;20051;-66
2023/04/18 00:32:34;;;;;;;17.08;13.07;;;;;;;11.59;57.32;102487.22;5052472;28;20040;-66
2023/04/18 00:35:00;;;;;;;17.15;13.77;;;;;;;11.58;57.39;102482.72;5051974;28;20440;-66
2023/04/18 00:37:25;;;;;;;17.20;13.88;;;;;;;11.60;57.37;102485.31;5051412;28;20056;-66
2023/04/18 00:39:52;;;;;;;15.50;13.82;;;;;;;11.59;57.31;102478.00;5069493;28;20028;-66
2023/04/18 00:42:21;;;;;;;16.73;14.25;;;;;;;11.53;57.46;102483.38;5065897;28;20048;-66
2023/04/18 00:44:47;;;;;;;16.15;14.25;;;;;;;11.49;57.23;102486.84;5054683;28;20020;-66
2023/04/18 00:47:15;;;;;;;19.10;14.00;;;;;;;11.53;57.19;102490.88;5068083;28;20037;-66
2023/04/18 00:49:41;;;;;;;15.15;13.50;;;;;;;11.54;57.27;102485.09;5071705;28;20097;-66
2023/04/18 00:52:06;;;;;;;16.10;13.50;;;;;;;11.57;56.92;102482.97;5070688;28;20472;-66
2023/04/18 00:54:31;;;;;;;24.77;14.00;;;;;;;11.58;56.08;102487.44;5071789;28;20043;-66
2023/04/18 00:56:57;;;;;;;17.42;13.15;;;;;;;11.60;55.54;102479.75;5070021;28;20033;-66
2023/04/18 00:59:22;;;;;;;15.73;13.90;;;;;;;11.55;55.22;102484.03;5067918;28;20550;-66
2023/04/18 01:01:47;;;;;;;15.15;13.00;;;;;;;11.57;54.65;102474.63;5070943;28;20032;-66
2023/04/18 01:04:13;;;;;;;16.55;14.15;;;;;;;11.56;54.67;102484.88;5064829;28;20392;-66
2023/04/18 01:06:39;;;;;;;18.85;13.45;;;;;;;11.50;54.06;102481.03;5067293;28;20025;-66
2023/04/18 01:09:05;;;;;;;20.73;13.13;;;;;;;11.48;53.58;102476.78;5051706;28;20036;-66
2023/04/18 01:11:30;;;;;;;19.42;12.88;;;;;;;11.48;53.59;102487.91;5052399;28;20041;-66
2023/04/18 01:14:04;;;;;;;14.18;12.65;;;;;;;11.43;53.16;102485.75;5078865;28;20067;-66
2023/04/18 01:16:35;;;;;;;15.68;12.18;;;;;;;11.37;53.03;102478.31;5090899;28;20032;-67
2023/04/18 01:19:02;;;;;;;16.17;12.93;;;;;;;11.35;52.78;102476.81;5090578;28;20084;-66
2023/04/18 01:21:30;;;;;;;20.75;12.88;;;;;;;11.31;52.32;102473.63;5070637;28;20555;-67
2023/04/18 01:24:01;;;;;;;16.55;12.25;;;;;;;11.28;52.88;102471.31;5087971;28;20044;-67
2023/04/18 01:26:27;;;;;;;19.38;12.38;;;;;;;11.28;52.81;102476.88;5083344;28;20598;-66
2023/04/18 01:28:53;;;;;;;14.80;12.05;;;;;;;11.26;52.22;102473.44;5071227;28;20115;-67
2023/04/18 01:31:18;;;;;;;14.18;11.82;;;;;;;11.25;52.75;102469.81;5076099;28;20032;-66
2023/04/18 01:33:43;;;;;;;15.68;12.63;;;;;;;11.27;52.56;102473.19;5076316;28;20031;-66
2023/04/18 01:36:08;;;;;;;16.25;12.32;;;;;;;11.16;52.25;102464.69;5069862;28;20032;-66
2023/04/18 01:38:34;;;;;;;14.93;12.38;;;;;;;11.18;52.38;102462.56;5070757;28;20020;-66
2023/04/18 01:40:59;;;;;;;13.93;12.45;;;;;;;11.20;52.54;102463.16;5070479;28;20101;-66
2023/04/18 01:43:24;;;;;;;15.05;12.90;;;;;;;11.13;52.09;102465.13;5071264;28;20495;-66
2023/04/18 01:45:50;;;;;;;18.75;13.10;;;;;;;11.10;52.46;102463.63;5084555;28;20051;-66
2023/04/18 01:48:15;;;;;;;16.20;12.73;;;;;;;11.00;52.94;102461.31;5083222;28;20028;-66
2023/04/18 01:50:40;;;;;;;16.08;13.35;;;;;;;10.99;52.93;102464.28;5090980;28;20038;-66
2023/04/18 01:53:05;;;;;;;15.25;12.52;;;;;;;11.00;52.90;102453.00;5084301;28;20536;-66
2023/04/18 01:55:31;;;;;;;16.83;12.77;;;;;;;10.99;52.83;102458.75;5070149;28;20135;-66
2023/04/18 01:57:56;;;;;;;16.50;12.80;;;;;;;11.01;52.88;102454.69;5070492;28;20027;-66
2023/04/18 02:00:22;;;;;;;18.45;13.00;;;;;;;10.99;53.16;102453.19;5070172;28;20383;-66
2023/04/18 02:02:49;;;;;;;15.70;13.10;;;;;;;10.99;53.46;102458.75;5073192;28;20047;-66
2023/04/18 02:05:14;;;;;;;15.80;13.05;;;;;;;11.03;52.72;102460.00;5084303;28;20117;-66
2023/04/18 02:07:41;;;;;;;16.80;12.50;;;;;;;11.02;52.67;102455.53;5082685;28;20419;-66
2023/04/18 02:10:07;;;;;;;18.30;13.02;;;;;;;11.00;52.72;102447.44;5090403;28;20113;-66
2023/04/18 02:12:33;;;;;;;17.13;13.18;;;;;;;11.01;52.45;102453.84;5089228;28;20044;-66
2023/04/18 02:14:58;;;;;;;17.67;13.07;;;;;;;10.97;52.50;102458.97;5089479;28;20463;-66
2023/04/18 02:17:23;;;;;;;14.57;12.52;;;;;;;10.92;52.92;102455.97;5078707;28;20039;-66
2023/04/18 02:19:50;;;;;;;17.42;13.27;;;;;;;10.90;52.56;102449.78;5069870;28;20024;-66
2023/04/18 02:22:16;;;;;;;16.88;13.05;;;;;;;10.87;52.60;102453.00;5088330;28;20519;-66
2023/04/18 02:24:41;;;;;;;17.77;12.70;;;;;;;10.84;52.44;102458.13;5083363;28;20040;-66
2023/04/18 02:27:07;;;;;;;17.63;12.90;;;;;;;10.79;52.39;102445.75;5088483;28;20035;-66
2023/04/18 02:29:32;;;;;;;16.27;12.82;;;;;;;10.80;52.48;102446.59;5093927;28;20032;-66
2023/04/18 02:31:57;;;;;;;16.40;12.20;;;;;;;10.75;52.45;102443.63;5093281;28;20184;-66
2023/04/18 02:34:22;;;;;;;13.93;12.43;;;;;;;10.77;52.33;102449.81;5088192;28;20039;-66
2023/04/18 02:36:48;;;;;;;14.75;12.35;;;;;;;10.76;52.39;102445.31;5095238;28;20067;-66
2023/04/18 02:39:13;;;;;;;16.48;13.00;;;;;;;10.72;52.56;102446.81;5090866;28;20025;-66
2023/04/18 02:41:38;;;;;;;14.70;12.48;;;;;;;10.70;52.57;102448.97;5094313;28;20032;-67
2023/04/18 02:44:05;;;;;;;13.35;11.68;;;;;;;10.63;52.77;102445.34;5094836;28;20104;-66
2023/04/18 02:46:31;;;;;;;15.18;12.00;;;;;;;10.65;52.55;102449.63;5095292;28;20438;-66
2023/04/18 02:48:56;;;;;;;15.57;12.82;;;;;;;10.59;52.61;102442.13;5095389;28;20020;-66
2023/04/18 02:51:21;;;;;;;15.05;11.98;;;;;;;10.57;52.86;102452.59;5092018;28;20032;-66
2023/04/18 02:53:47;;;;;;;15.18;12.18;;;;;;;10.51;52.67;102437.66;5096886;28;20032;-66
2023/04/18 02:56:16;;;;;;;15.10;12.35;;;;;;;10.45;52.78;102449.63;5081121;28;20034;-66
2023/04/18 02:58:41;;;;;;;16.55;13.13;;;;;;;10.49;52.72;102445.34;5089220;28;20458;-66
2023/04/18 03:01:07;;;;;;;15.75;13.32;;;;;;;10.45;52.78;102449.63;5087757;28;20063;-66
2023/04/18 03:03:32;;;;;;;15.50;13.10;;;;;;;10.47;52.57;102443.84;5088460;28;20032;-66
2023/04/18 03:05:57;;;;;;;15.38;12.38;;;;;;;10.50;52.63;102446.22;5096374;28;20081;-66
2023/04/18 03:08:22;;;;;;;17.95;12.95;;;;;;;10.47;52.76;102447.47;5095288;28;20028;-66
2023/04/18 03:10:48;;;;;;;14.50;11.95;;;;;;;10.45;52.54;102443.19;5094217;28;20024;-66
2023/04/18 03:13:15;;;;;;;14.35;12.85;;;;;;;10.41;52.86;102442.75;5091255;28;20541;-66
2023/04/18 03:15:41;;;;;;;15.50;12.95;;;;;;;10.35;52.61;102440.00;5084780;28;20846;-66
2023/04/18 03:18:06;;;;;;;15.43;12.50;;;;;;;10.39;52.81;102439.38;5095329;28;20103;-67
2023/04/18 03:20:31;;;;;;;17.80;13.48;;;;;;;10.30;52.90;102443.44;5094823;28;20375;-66
2023/04/18 03:22:56;;;;;;;18.10;13.18;;;;;;;10.26;52.76;102444.91;5086335;28;20031;-67
2023/04/18 03:25:22;;;;;;;15.07;12.45;;;;;;;10.29;52.63;102444.47;5079089;28;20052;-66
2023/04/18 03:27:47;;;;;;;14.15;12.60;;;;;;;10.16;52.88;102445.28;5091321;28;20024;-66
2023/04/18 03:30:13;;;;;;;14.85;12.38;;;;;;;10.13;53.39;102442.06;5090942;28;20039;-66
2023/04/18 03:32:38;;;;;;;16.15;12.20;;;;;;;10.13;53.17;102447.63;5089670;28;20047;-66
2023/04/18 03:35:03;;;;;;;16.10;12.68;;;;;;;10.06;53.02;102442.94;5096074;28;20036;-66
2023/04/18 03:37:29;;;;;;;16.08;12.65;;;;;;;10.10;52.67;102446.16;5091663;28;20029;-66
2023/04/18 03:39:54;;;;;;;14.18;12.35;;;;;;;10.05;52.67;102452.31;5081603;28;20028;-66
2023/04/18 03:42:19;;;;;;;14.23;12.07;;;;;;;10.04;52.95;102449.75;5090982;28;20032;-67
2023/04/18 03:44:45;;;;;;;15.43;12.50;;;;;;;10.04;53.17;102449.75;5087467;28;20032;-66
2023/04/18 03:47:10;;;;;;;16.13;12.40;;;;;;;10.01;53.11;102442.69;5072750;28;20749;-67
2023/04/18 03:49:35;;;;;;;16.75;12.60;;;;;;;10.04;52.68;102444.22;5072701;28;20380;-66
2023/04/18 03:52:01;;;;;;;13.93;12.20;;;;;;;10.01;52.59;102441.84;5072545;28;20086;-66
2023/04/18 03:54:26;;;;;;;16.00;13.50;;;;;;;9.91;52.90;102438.63;5073141;28;20020;-66
2023/04/18 03:56:52;;;;;;;16.70;12.82;;;;;;;9.92;52.71;102449.50;5072829;28;20024;-66
2023/04/18 03:59:17;;;;;;;15.07;12.18;;;;;;;9.93;52.93;102445.66;5079628;28;20023;-66
2023/04/18 04:01:42;;;;;;;14.30;12.77;;;;;;;9.94;52.91;102454.84;5080486;28;20043;-66
2023/04/18 04:04:10;;;;;;;15.63;12.38;;;;;;;9.93;52.70;102465.09;5072863;28;20111;-66
2023/04/18 04:06:36;;;;;;;13.57;12.13;;;;;;;9.87;53.25;102460.38;5083160;28;20036;-66
2023/04/18 04:09:01;;;;;;;15.55;12.73;;;;;;;9.81;53.04;102453.75;5082299;28;20101;-66
2023/04/18 04:11:29;;;;;;;13.50;12.07;;;;;;;9.87;53.24;102454.00;5091129;28;20039;-66
2023/04/18 04:13:54;;;;;;;15.85;11.98;;;;;;;9.85;52.89;102448.63;5092230;28;20063;-66
2023/04/18 04:16:20;;;;;;;13.32;11.93;;;;;;;9.88;53.06;102450.16;5088561;28;20028;-66
2023/04/18 04:18:45;;;;;;;14.00;12.48;;;;;;;9.88;52.82;102450.16;5081550;28;20070;-66
2023/04/18 04:21:10;;;;;;;15.57;12.25;;;;;;;9.80;53.00;102453.97;5084292;28;20040;-66
2023/04/18 04:23:36;;;;;;;19.73;12.55;;;;;;;9.75;53.04;102448.19;5081545;28;20040;-66
2023/04/18 04:26:05;;;;;;;15.38;12.27;;;;;;;9.78;53.12;102453.31;5089652;28;20036;-66
2023/04/18 04:28:30;;;;;;;14.48;12.27;;;;;;;9.73;53.04;102465.03;5092255;28;20464;-66
2023/04/18 04:30:56;;;;;;;16.23;12.40;;;;;;;9.69;53.09;102466.50;5082541;28;20036;-66
2023/04/18 04:33:24;;;;;;;15.38;13.00;;;;;;;9.69;53.31;102462.88;5081156;28;20060;-66
2023/04/18 04:35:51;;;;;;;13.45;12.07;;;;;;;9.56;53.40;102460.94;5090356;28;20106;-65
2023/04/18 04:38:18;;;;;;;12.70;11.38;;;;;;;9.61;53.68;102463.06;5092161;28;20025;-65
2023/04/18 04:40:45;;;;;;;13.63;12.02;;;;;;;9.48;53.72;102461.97;5079816;28;20063;-66
2023/04/18 04:43:11;;;;;;;15.95;12.45;;;;;;;9.47;53.95;102460.25;5084817;28;20569;-65
2023/04/18 04:45:38;;;;;;;17.70;12.48;;;;;;;9.45;53.30;102459.59;5091924;28;20024;-66
2023/04/18 04:48:10;;;;;;;14.45;11.48;;;;;;;9.41;54.14;102469.38;5082252;28;20749;-66
2023/04/18 04:50:37;;;;;;;14.68;12.93;;;;;;;9.40;54.09;102476.00;5070309;28;20021;-66
2023/04/18 04:53:03;;;;;;;16.23;12.35;;;;;;;9.41;54.07;102463.84;5072974;28;20028;-66
2023/04/18 04:55:29;;;;;;;14.55;12.18;;;;;;;9.43;53.64;102478.38;5082147;28;20428;-66
2023/04/18 04:57:54;;;;;;;12.50;11.07;;;;;;;9.43;53.62;102480.25;5089398;28;20020;-66
2023/04/18 05:00:20;;;;;;;13.93;12.02;;;;;;;9.36;54.11;102469.16;5087694;28;20070;-66
2023/04/18 05:02:50;;;;;;;15.05;12.07;;;;;;;9.39;54.01;102465.09;5073186;28;20032;-66
2023/04/18 05:05:15;;;;;;;14.77;12.07;;;;;;;9.42;53.20;102481.31;5076273;28;20454;-66
2023/04/18 05:07:40;;;;;;;16.65;12.00;;;;;;;9.37;53.63;102470.84;5072369;28;20119;-66
2023/04/18 05:10:06;;;;;;;14.55;12.10;;;;;;;9.37;53.46;102484.72;5079403;28;20348;-66
2023/04/18 05:12:31;;;;;;;14.63;12.25;;;;;;;9.41;53.63;102474.94;5084604;28;20556;-66
2023/04/18 05:14:56;;;;;;;13.45;12.05;;;;;;;9.32;53.78;102476.16;5069363;28;20055;-66
2023/04/18 05:17:22;;;;;;;14.00;11.77;;;;;;;9.34;53.44;102479.56;5077772;28;20039;-66
2023/04/18 05:19:47;;;;;;;13.95;12.10;;;;;;;9.36;53.88;102483.00;5070805;28;20074;-66
2023/04/18 05:22:13;;;;;;;14.95;12.27;;;;;;;9.38;54.04;102475.31;5080947;28;20044;-62
2023/04/18 05:24:38;;;;;;;17.42;12.15;;;;;;;9.35;53.56;102478.50;5092099;28;20028;-66
2023/04/18 05:27:04;;;;;;;14.65;12.10;;;;;;;9.35;53.86;102486.81;5084951;28;20069;-66
2023/04/18 05:29:29;;;;;;;16.63;12.20;;;;;;;9.37;53.79;102484.72;5083741;28;20073;-66
2023/04/18 05:31:54;;;;;;;15.40;12.10;;;;;;;9.35;53.64;102486.81;5081785;28;20032;-66
2023/04/18 05:34:19;;;;;;;13.50;11.57;;;;;;;9.36;53.90;102485.78;5078492;28;20543;-66
2023/04/18 05:36:46;;;;;;;15.05;11.77;;;;;;;9.34;53.68;102490.66;5084433;28;20061;-66
2023/04/18 05:39:12;;;;;;;14.68;11.60;;;;;;;9.33;53.27;102491.72;5080725;28;20538;-66
2023/04/18 05:41:37;;;;;;;15.90;11.63;;;;;;;9.35;53.61;102492.38;5089454;28;20039;-66
2023/04/18 05:44:02;;;;;;;15.98;12.00;;;;;;;9.36;53.49;102493.25;5074586;28;20080;-66
2023/04/18 05:46:28;;;;;;;17.50;12.75;;;;;;;9.34;53.80;102501.75;5081872;28;20036;-66
2023/04/18 05:48:53;;;;;;;14.32;12.27;;;;;;;9.36;53.61;102502.41;5075591;28;20024;-66
2023/04/18 05:51:18;;;;;;;14.38;12.07;;;;;;;9.37;53.65;102506.03;5088338;28;20028;-66
2023/04/18 05:53:43;;;;;;;13.10;11.07;;;;;;;9.40;54.10;102506.47;5090833;28;20477;-66
2023/04/18 05:56:09;;;;;;;16.63;11.80;;;;;;;9.40;53.75;102511.16;5081576;28;20028;-66
2023/04/18 05:58:34;;;;;;;14.85;12.13;;;;;;;9.38;54.25;102510.50;5080193;28;20032;-66
2023/04/18 06:01:00;;;;;;;15.73;11.82;;;;;;;9.37;53.97;102517.13;5074843;28;20016;-66
2023/04/18 06:03:25;;;;;;;16.05;12.38;;;;;;;9.36;54.59;102513.50;5087122;28;20047;-66
2023/04/18 06:05:51;;;;;;;13.40;11.98;;;;;;;9.39;54.54;102513.06;5070529;28;20530;-65
2023/04/18 06:08:16;;;;;;;14.48;11.10;;;;;;;9.38;54.35;102514.13;5068795;28;20116;-68
2023/04/18 06:10:42;;;;;;;13.65;11.73;;;;;;;9.41;54.66;102516.50;5077086;28;20030;-65
2023/04/18 06:13:07;;;;;;;14.93;11.55;;;;;;;9.42;54.86;102517.34;5068596;28;20157;-65
2023/04/18 06:15:33;;;;;;;15.05;11.80;;;;;;;9.43;54.24;102521.81;5084066;28;20114;-65
2023/04/18 06:17:58;;;;;;;16.08;11.75;;;;;;;9.48;55.09;102520.16;5081773;28;20062;-67
2023/04/18 06:20:24;;;;;;;17.77;11.80;;;;;;;9.50;54.80;102519.94;5083801;28;20459;-66
2023/04/18 06:22:49;;;;;;;14.05;12.43;;;;;;;9.51;54.40;102519.75;5076955;28;20038;-64
2023/04/18 06:25:17;;;;;;;17.67;13.52;;;;;;;9.44;55.16;102523.56;5075235;28;20021;-66
2023/04/18 06:27:44;;;;;;;17.13;12.45;;;;;;;9.44;54.99;102532.72;5079471;28;20253;-65
2023/04/18 06:30:09;;;;;;;17.70;12.05;;;;;;;9.42;55.29;102525.66;5071164;28;20128;-65
2023/04/18 06:32:35;;;;;;;14.50;12.50;;;;;;;9.40;55.08;102519.47;5074283;28;20486;-67
2023/04/18 06:35:00;;;;;;;13.85;12.35;;;;;;;9.41;55.85;102523.97;5077552;28;20035;-66
2023/04/18 06:37:25;;;;;;;13.23;11.82;;;;;;;9.38;56.02;102527.13;5074211;28;20476;-65
2023/04/18 06:39:51;;;;;;;15.70;12.57;;;;;;;9.35;56.01;102528.38;5072781;28;20040;-65
2023/04/18 06:42:16;;;;;;;17.25;12.60;;;;;;;9.36;56.86;102526.50;5071027;28;20035;-66
2023/04/18 06:44:42;;;;;;;14.00;12.50;;;;;;;9.38;56.34;102521.59;5078061;28;20040;-65
2023/04/18 06:47:08;;;;;;;16.70;11.82;;;;;;;9.41;56.90;102530.34;5071975;28;20031;-68
2023/04/18 06:49:33;;;;;;;15.43;12.73;;;;;;;9.42;56.65;102534.81;5073809;28;20668;-65
2023/04/18 06:51:58;;;;;;;14.80;12.40;;;;;;;9.35;56.90;102531.16;5078953;28;20039;-62
2023/04/18 06:54:24;;;;;;;21.90;13.10;;;;;;;9.31;56.89;102527.97;5076110;28;20653;-67
2023/04/18 06:56:49;;;;;;;15.43;12.45;;;;;;;9.24;57.29;102529.84;5070710;28;20033;-65
2023/04/18 06:59:14;;;;;;;15.77;12.57;;;;;;;9.22;58.00;102533.84;5074706;28;20028;-66
2023/04/18 07:01:41;;;;;;;15.13;12.75;;;;;;;9.16;57.95;102545.78;5068490;28;20039;-66
2023/04/18 07:04:06;;;;;;;17.17;13.10;;;;;;;9.24;58.45;102542.84;5068701;28;20119;-66
2023/04/18 07:06:33;;;;;;;15.48;11.80;;;;;;;9.28;58.39;102542.22;5070760;28;20111;-66
2023/04/18 07:09:00;;;;;;;15.77;12.00;;;;;;;9.30;58.75;102545.63;5089163;28;20036;-66
2023/04/18 07:11:26;;;;;;;15.07;12.32;;;;;;;9.34;58.22;102543.31;5083668;28;20029;-66
2023/04/18 07:14:00;;;;;;;17.45;12.18;;;;;;;9.41;58.72;102546.13;5083038;28;20052;-66
2023/04/18 07:16:26;;;;;;;16.58;12.48;;;;;;;9.36;58.81;102546.75;5093353;28;20024;-66
2023/04/18 07:18:51;;;;;;;13.93;12.05;;;;;;;9.39;58.36;102549.09;5073720;28;20086;-65
2023/04/18 07:21:17;;;;;;;14.70;12.70;;;;;;;9.38;58.73;102544.63;5072585;28;20033;-66
2023/04/18 07:23:43;;;;;;;14.45;11.88;;;;;;;9.34;58.45;102549.72;5072229;28;20052;-66
2023/04/18 07:26:08;;;;;;;13.88;11.75;;;;;;;9.35;58.47;102547.78;5072493;28;20028;-65
2023/04/18 07:28:34;;;;;;;14.85;12.15;;;;;;;9.32;59.14;102554.63;5072902;28;20527;-66
2023/04/18 07:31:03;;;;;;;14.43;12.15;;;;;;;9.29;58.88;102556.94;5072661;28;20085;-66
2023/04/18 07:33:32;;;;;;;13.68;11.82;;;;;;;9.22;59.39;102550.47;5078748;28;20031;-67
2023/04/18 07:35:58;;;;;;;15.70;11.52;;;;;;;9.26;59.16;102554.56;5092956;28;20063;-66
2023/04/18 07:38:23;;;;;;;14.13;12.30;;;;;;;9.30;59.79;102564.19;5091790;28;20444;-66
2023/04/18 07:40:59;;;;;;;15.32;12.63;;;;;;;9.39;59.23;102562.94;5092614;28;20051;-66
2023/04/18 07:43:25;;;;;;;13.82;11.48;;;;;;;9.44;59.72;102563.22;5092830;28;20028;-66
2023/04/18 07:45:51;;;;;;;13.48;11.20;;;;;;;9.47;60.04;102559.16;5077790;28;20029;-66
2023/04/18 07:48:16;;;;;;;12.18;10.60;;;;;;;9.55;59.47;102559.03;5070403;28;20046;-66
2023/04/18 07:50:41;;;;;;;16.98;12.18;;;;;;;9.63;59.44;102556.06;5090378;28;20036;-65
2023/04/18 07:53:07;;;;;;;14.90;11.60;;;;;;;9.66;59.47;102558.41;5090165;28;20028;-65
2023/04/18 07:55:33;;;;;;;13.45;11.00;;;;;;;9.69;59.13;102562.69;5091774;28;20490;-65
2023/04/18 07:57:58;;;;;;;12.65;11.23;;;;;;;9.82;59.74;102565.53;5087113;28;20020;-65
2023/04/18 08:00:24;;;;;;;12.50;10.90;;;;;;;9.87;58.99;102567.72;5092360;28;20423;-65
2023/04/18 08:02:52;;;;;;;14.90;11.77;;;;;;;9.84;59.20;102566.19;5092504;28;20137;-66
2023/04/18 08:05:20;;;;;;;13.93;10.93;;;;;;;9.92;59.12;102568.78;5088856;28;20035;-65
2023/04/18 08:07:45;;;;;;;12.07;10.82;;;;;;;10.00;59.33;102556.66;5090403;28;20390;-65
2023/04/18 08:10:10;;;;;;;12.00;10.73;;;;;;;10.03;58.90;102557.09;5092800;28;20028;-65
2023/04/18 08:12:36;;;;;;;14.15;12.13;;;;;;;9.92;58.98;102579.03;5092238;28;20077;-65
2023/04/18 08:15:02;;;;;;;11.23;10.10;;;;;;;9.89;59.34;102577.50;5091501;28;20075;-65
2023/04/18 08:17:28;;;;;;;13.07;11.63;;;;;;;9.83;59.34;102581.13;5092576;28;20031;-65
2023/04/18 08:19:57;;;;;;;13.73;11.43;;;;;;;9.82;60.04;102582.16;5091774;28;20050;-64
2023/04/18 08:22:22;;;;;;;11.90;10.60;;;;;;;9.88;59.16;102574.97;5081901;28;20081;-65
2023/04/18 08:24:47;;;;;;;13.07;11.75;;;;;;;9.94;59.14;102579.66;5091021;28;20032;-64
2023/04/18 08:27:12;;;;;;;12.70;11.23;;;;;;;9.96;59.57;102575.63;5092000;28;20030;-66
2023/04/18 08:29:38;;;;;;;14.70;12.27;;;;;;;10.00;59.28;102582.47;5091773;28;20433;-65
2023/04/18 08:32:06;;;;;;;15.30;12.23;;;;;;;9.97;59.44;102582.88;5091777;28;20026;-65
2023/04/18 08:34:37;;;;;;;14.77;11.23;;;;;;;10.01;59.17;102586.09;5091745;28;20035;-66
2023/04/18 08:37:03;;;;;;;15.55;11.25;;;;;;;10.02;59.52;102580.34;5088279;28;20548;-64
2023/04/18 08:39:28;;;;;;;13.18;11.88;;;;;;;10.01;59.78;102580.56;5072713;28;20044;-65
2023/04/18 08:41:58;;;;;;;13.55;11.18;;;;;;;10.03;59.74;102570.13;5071405;28;20494;-65
2023/04/18 08:44:27;;;;;;;13.15;11.85;;;;;;;9.98;60.24;102564.31;5076531;28;20036;-65
2023/04/18 08:46:54;;;;;;;13.35;11.77;;;;;;;10.06;60.17;102572.44;5090967;28;20494;-66
2023/04/18 08:49:20;;;;;;;18.00;11.40;;;;;;;10.09;60.18;102561.78;5091948;28;20040;-65
2023/04/18 08:51:46;;;;;;;14.60;11.85;;;;;;;10.12;60.01;102565.22;5090887;28;20054;-65
2023/04/18 08:54:12;;;;;;;13.63;11.13;;;;;;;10.09;60.14;102566.50;5091452;28;20028;-65
2023/04/18 08:56:39;;;;;;;13.75;11.63;;;;;;;10.13;59.88;102562.22;5087367;28;20032;-65
2023/04/18 08:59:05;;;;;;;12.40;10.68;;;;;;;10.18;59.96;102565.25;5089523;28;20099;-65
2023/04/18 09:01:55;;;;;;;12.77;11.25;;;;;;;10.26;60.48;102565.09;5091110;28;20110;-65
2023/04/18 09:04:35;;;;;;;13.18;11.77;;;;;;;10.36;59.71;102558.28;5088938;28;20033;-65
2023/04/18 09:07:06;;;;;;;14.20;12.00;;;;;;;10.46;60.11;102551.25;5091058;28;20116;-65
2023/04/18 09:09:44;;;;;;;14.15;11.90;;;;;;;10.54;59.88;102547.44;5090845;28;20032;-65
2023/04/18 09:12:13;;;;;;;14.63;11.85;;;;;;;10.56;59.39;102548.91;5087885;28;20055;-65
2023/04/18 09:14:44;;;;;;;13.55;12.18;;;;;;;10.63;59.63;102545.31;5087671;28;20051;-65
2023/04/18 09:17:30;;;;;;;14.23;12.73;;;;;;;10.78;58.97;102544.03;5082525;28;20036;-65
2023/04/18 09:19:56;;;;;;;13.50;12.10;;;;;;;10.94;57.69;102539.97;5079371;28;20105;-64
2023/04/18 09:22:22;;;;;;;14.18;12.27;;;;;;;10.98;56.95;102543.19;5091358;28;20157;-65
2023/04/18 09:24:54;;;;;;;13.93;12.25;;;;;;;10.97;57.05;102550.66;5090650;28;20492;-66
2023/04/18 09:27:23;;;;;;;13.32;11.93;;;;;;;10.91;56.93;102551.50;5091216;28;20032;-66
2023/04/18 09:29:50;;;;;;;14.07;11.93;;;;;;;10.86;57.04;102551.28;5085416;28;20059;-66
2023/04/18 09:32:25;;;;;;;15.73;12.23;;;;;;;10.82;56.76;102544.47;5078250;28;20959;-66
2023/04/18 09:34:56;;;;;;;14.80;11.05;;;;;;;10.80;56.38;102552.13;5070569;28;20035;-66
2023/04/18 09:37:23;;;;;;;16.48;11.18;;;;;;;10.85;56.67;102541.25;5070036;28;20040;-66
2023/04/18 09:39:49;;;;;;;12.43;11.13;;;;;;;10.89;56.81;102534.22;5069683;28;20036;-66
2023/04/18 09:42:15;;;;;;;13.15;10.80;;;;;;;10.93;56.49;102543.81;5070508;28;20024;-66
2023/04/18 09:44:58;;;;;;;13.05;11.15;;;;;;;10.96;56.89;102537.81;5069640;28;20495;-66
2023/04/18 09:47:25;;;;;;;12.73;11.38;;;;;;;10.92;56.43;102536.53;5074889;28;20035;-66
2023/04/18 09:49:51;;;;;;;14.48;10.85;;;;;;;10.96;56.45;102531.41;5089914;28;20055;-66
2023/04/18 09:52:18;;;;;;;11.85;10.10;;;;;;;11.01;56.47;102529.72;5090637;28;20024;-65
2023/04/18 09:54:46;;;;;;;12.25;10.65;;;;;;;11.10;56.47;102526.72;5090175;28;20028;-66
2023/04/18 09:57:12;;;;;;;12.50;9.68;;;;;;;11.12;55.95;102531.00;5090160;28;20052;-66
2023/04/18 09:59:49;;;;;;;11.70;10.45;;;;;;;11.13;55.77;102529.91;5090228;28;20081;-66
2023/04/18 10:02:19;;;;;;;11.88;10.45;;;;;;;11.14;55.48;102537.16;5084893;28;20382;-66
2023/04/18 10:04:46;;;;;;;12.82;10.63;;;;;;;11.16;55.45;102535.03;5090102;28;20498;-65
2023/04/18 10:07:12;;;;;;;11.80;9.63;;;;;;;11.19;55.57;102528.19;5089740;28;20041;-66
2023/04/18 10:09:41;;;;;;;11.93;9.55;;;;;;;11.17;55.52;102524.78;5090096;28;20024;-65
2023/04/18 10:12:07;;;;;;;9.95;8.73;;;;;;;11.12;54.85;102532.88;5089518;28;20110;-65
2023/04/18 10:14:33;;;;;;;9.35;8.45;;;;;;;11.07;54.74;102541.88;5087339;28;20111;-65
2023/04/18 10:16:59;;;;;;;10.52;9.27;;;;;;;11.06;55.58;102534.63;5069218;28;20078;-65
2023/04/18 10:19:27;;;;;;;11.38;8.68;;;;;;;11.05;55.91;102538.47;5071938;28;20036;-65
2023/04/18 10:21:58;;;;;;;11.23;8.80;;;;;;;11.07;56.13;102545.50;5069345;28;20123;-65
2023/04/18 10:24:51;;;;;;;8.85;7.50;;;;;;;11.13;56.04;102540.19;5070413;28;20391;-65
2023/04/18 10:27:37;;;;;;;8.05;7.25;;;;;;;11.08;55.05;102538.00;5069684;28;20036;-65
2023/04/18 10:30:03;;;;;;;7.47;6.70;;;;;;;11.02;54.95;102550.84;5068870;28;20451;-65
2023/04/18 10:32:28;;;;;;;7.80;7.10;;;;;;;10.97;54.42;102539.53;5069585;28;20112;-65
2023/04/18 10:34:54;;;;;;;7.90;7.07;;;;;;;10.96;54.40;102539.75;5069393;28;20119;-65
2023/04/18 10:37:19;;;;;;;8.38;7.38;;;;;;;10.99;55.79;102551.28;5082448;28;20115;-65
2023/04/18 10:39:50;;;;;;;8.20;7.40;;;;;;;11.01;54.50;102537.19;5080410;28;20160;-62
2023/04/18 10:42:16;;;;;;;8.05;7.25;;;;;;;10.99;54.14;102540.16;5072732;28;20035;-65
2023/04/18 10:44:41;;;;;;;8.82;7.70;;;;;;;11.01;54.66;102542.75;5081815;28;20811;-65
2023/04/18 10:47:06;;;;;;;7.80;7.00;;;;;;;11.05;55.16;102544.88;5081741;28;20028;-66
2023/04/18 10:49:32;;;;;;;9.18;7.93;;;;;;;11.04;54.80;102547.84;5079954;28;20451;-66
2023/04/18 10:51:59;;;;;;;7.88;7.07;;;;;;;11.01;55.05;102543.59;5078842;28;20357;-67
2023/04/18 10:54:29;;;;;;;8.32;7.25;;;;;;;11.06;55.65;102535.47;5093002;28;20055;-67
2023/04/18 10:56:56;;;;;;;8.57;7.68;;;;;;;11.11;55.03;102534.81;5084018;28;20063;-67
2023/04/18 10:59:23;;;;;;;11.90;8.10;;;;;;;11.11;54.89;102537.59;5092208;28;20471;-66
2023/04/18 11:01:58;;;;;;;9.15;7.95;;;;;;;11.13;54.85;102538.25;5091082;28;20031;-66
2023/04/18 11:04:24;;;;;;;8.95;7.93;;;;;;;11.16;55.21;102539.72;5092887;28;20419;-68
2023/04/18 11:06:56;;;;;;;8.05;7.25;;;;;;;11.17;55.14;102538.66;5084638;28;20035;-68
2023/04/18 11:09:22;;;;;;;12.07;8.32;;;;;;;11.17;55.09;102536.75;5081645;28;20085;-67
2023/04/18 11:12:21;;;;;;;9.63;8.20;;;;;;;11.19;55.55;102533.75;5091173;28;20035;-66